sensor_id;sensor_type;location;lat;lon;timestamp;temperature;humidity
59146;DHT22;44928;53.074;6.646;2023-07-13T00:01:29;16.30;99.90
59146;DHT22;44928;53.074;6.646;2023-07-13T00:03:59;16.20;99.90
59146;DHT22;44928;53.074;6.646;2023-07-13T00:06:25;16.20;99.90
59146;DHT22;44928;53.074;6.646;2023-07-13T00:08:55;16.10;99.90
59146;DHT22;44928;53.074;6.646;2023-07-13T00:11:21;16.20;99.90
59146;DHT22;44928;53.074;6.646;2023-07-13T00:13:48;16.10;99.90
59146;DHT22;44928;53.074;6.646;2023-07-13T00:16:13;16.10;99.90
59146;DHT22;44928;53.074;6.646;2023-07-13T00:18:40;16.10;99.90
59146;DHT22;44928;53.074;6.646;2023-07-13T00:21:06;16.10;99.90
59146;DHT22;44928;53.074;6.646;2023-07-13T00:23:33;16.10;99.90
59146;DHT22;44928;53.074;6.646;2023-07-13T00:26:02;16.10;99.90
59146;DHT22;44928;53.074;6.646;2023-07-13T00:28:29;16.10;99.90
59146;DHT22;44928;53.074;6.646;2023-07-13T00:30:54;16.10;99.90
59146;DHT22;44928;53.074;6.646;2023-07-13T00:33:21;16.10;99.90
59146;DHT22;44928;53.074;6.646;2023-07-13T00:35:49;16.10;99.90
59146;DHT22;44928;53.074;6.646;2023-07-13T00:38:15;16.10;99.90
59146;DHT22;44928;53.074;6.646;2023-07-13T00:40:42;16.10;99.90
59146;DHT22;44928;53.074;6.646;2023-07-13T00:43:17;16.20;99.90
59146;DHT22;44928;53.074;6.646;2023-07-13T00:48:20;16.20;99.90
59146;DHT22;44928;53.074;6.646;2023-07-13T00:50:50;16.20;99.90
59146;DHT22;44928;53.074;6.646;2023-07-13T00:53:18;16.20;99.90
59146;DHT22;44928;53.074;6.646;2023-07-13T00:55:44;16.20;99.90
59146;DHT22;44928;53.074;6.646;2023-07-13T00:58:10;16.30;99.90
59146;DHT22;44928;53.074;6.646;2023-07-13T01:00:38;16.20;99.90
59146;DHT22;44928;53.074;6.646;2023-07-13T01:03:05;16.30;99.90
59146;DHT22;44928;53.074;6.646;2023-07-13T01:05:35;16.30;99.90
59146;DHT22;44928;53.074;6.646;2023-07-13T01:08:03;16.30;99.90
59146;DHT22;44928;53.074;6.646;2023-07-13T01:10:30;16.30;99.90
59146;DHT22;44928;53.074;6.646;2023-07-13T01:13:08;16.40;99.90
59146;DHT22;44928;53.074;6.646;2023-07-13T01:15:42;16.30;99.90
59146;DHT22;44928;53.074;6.646;2023-07-13T01:18:17;16.30;99.90
59146;DHT22;44928;53.074;6.646;2023-07-13T01:20:54;16.40;99.90
59146;DHT22;44928;53.074;6.646;2023-07-13T01:23:21;16.40;99.90
59146;DHT22;44928;53.074;6.646;2023-07-13T01:25:47;16.40;99.90
59146;DHT22;44928;53.074;6.646;2023-07-13T01:28:13;16.40;99.90
59146;DHT22;44928;53.074;6.646;2023-07-13T01:30:40;16.40;99.90
59146;DHT22;44928;53.074;6.646;2023-07-13T01:33:07;16.40;99.90
59146;DHT22;44928;53.074;6.646;2023-07-13T01:35:33;16.40;99.90
59146;DHT22;44928;53.074;6.646;2023-07-13T01:37:59;16.40;99.90
59146;DHT22;44928;53.074;6.646;2023-07-13T01:40:27;16.40;99.90
59146;DHT22;44928;53.074;6.646;2023-07-13T01:42:53;16.40;99.90
59146;DHT22;44928;53.074;6.646;2023-07-13T01:45:19;16.40;99.90
59146;DHT22;44928;53.074;6.646;2023-07-13T01:47:45;16.40;99.90
59146;DHT22;44928;53.074;6.646;2023-07-13T01:50:10;16.40;99.90
59146;DHT22;44928;53.074;6.646;2023-07-13T01:52:36;16.40;99.90
59146;DHT22;44928;53.074;6.646;2023-07-13T01:55:03;16.40;99.90
59146;DHT22;44928;53.074;6.646;2023-07-13T01:57:29;16.40;99.90
59146;DHT22;44928;53.074;6.646;2023-07-13T01:59:54;16.40;99.90
59146;DHT22;44928;53.074;6.646;2023-07-13T02:02:20;16.40;99.90
59146;DHT22;44928;53.074;6.646;2023-07-13T02:04:46;16.40;99.90
59146;DHT22;44928;53.074;6.646;2023-07-13T02:07:12;16.40;99.90
59146;DHT22;44928;53.074;6.646;2023-07-13T02:09:38;16.40;99.90
59146;DHT22;44928;53.074;6.646;2023-07-13T02:12:04;16.40;99.90
59146;DHT22;44928;53.074;6.646;2023-07-13T02:14:30;16.40;99.90
59146;DHT22;44928;53.074;6.646;2023-07-13T02:16:56;16.40;99.90
59146;DHT22;44928;53.074;6.646;2023-07-13T02:19:22;16.40;99.90
59146;DHT22;44928;53.074;6.646;2023-07-13T02:21:48;16.40;99.90
59146;DHT22;44928;53.074;6.646;2023-07-13T02:24:14;16.40;99.90
59146;DHT22;44928;53.074;6.646;2023-07-13T02:26:43;16.40;99.90
59146;DHT22;44928;53.074;6.646;2023-07-13T02:29:10;16.30;99.90
59146;DHT22;44928;53.074;6.646;2023-07-13T02:31:36;16.30;99.90
59146;DHT22;44928;53.074;6.646;2023-07-13T02:34:02;16.30;99.90
59146;DHT22;44928;53.074;6.646;2023-07-13T02:36:28;16.30;99.90
59146;DHT22;44928;53.074;6.646;2023-07-13T02:38:54;16.30;99.90
59146;DHT22;44928;53.074;6.646;2023-07-13T02:41:20;16.30;99.90
59146;DHT22;44928;53.074;6.646;2023-07-13T02:43:46;16.20;99.90
59146;DHT22;44928;53.074;6.646;2023-07-13T02:46:12;16.20;99.90
59146;DHT22;44928;53.074;6.646;2023-07-13T02:48:38;16.20;99.90
59146;DHT22;44928;53.074;6.646;2023-07-13T02:51:05;16.20;99.90
59146;DHT22;44928;53.074;6.646;2023-07-13T02:53:31;16.20;99.90
59146;DHT22;44928;53.074;6.646;2023-07-13T02:55:57;16.10;99.90
59146;DHT22;44928;53.074;6.646;2023-07-13T02:58:23;16.10;99.90
59146;DHT22;44928;53.074;6.646;2023-07-13T03:00:49;16.10;99.90
59146;DHT22;44928;53.074;6.646;2023-07-13T03:03:15;16.00;99.90
59146;DHT22;44928;53.074;6.646;2023-07-13T03:05:43;16.00;99.90
59146;DHT22;44928;53.074;6.646;2023-07-13T03:08:11;16.00;99.90
59146;DHT22;44928;53.074;6.646;2023-07-13T03:10:37;16.00;99.90
59146;DHT22;44928;53.074;6.646;2023-07-13T03:13:05;15.90;99.90
59146;DHT22;44928;53.074;6.646;2023-07-13T03:15:31;15.90;99.90
59146;DHT22;44928;53.074;6.646;2023-07-13T03:17:57;15.90;99.90
59146;DHT22;44928;53.074;6.646;2023-07-13T03:20:23;15.90;99.90
59146;DHT22;44928;53.074;6.646;2023-07-13T03:22:49;15.90;99.90
59146;DHT22;44928;53.074;6.646;2023-07-13T03:25:15;15.90;99.90
59146;DHT22;44928;53.074;6.646;2023-07-13T03:27:40;15.90;99.90
59146;DHT22;44928;53.074;6.646;2023-07-13T03:30:07;15.90;99.90
59146;DHT22;44928;53.074;6.646;2023-07-13T03:32:33;15.90;99.90
59146;DHT22;44928;53.074;6.646;2023-07-13T03:34:59;15.80;99.90
59146;DHT22;44928;53.074;6.646;2023-07-13T03:37:25;15.80;99.90
59146;DHT22;44928;53.074;6.646;2023-07-13T03:39:51;15.80;99.90
59146;DHT22;44928;53.074;6.646;2023-07-13T03:42:17;15.80;99.90
59146;DHT22;44928;53.074;6.646;2023-07-13T03:44:43;15.70;99.90
59146;DHT22;44928;53.074;6.646;2023-07-13T03:47:18;15.80;99.90
59146;DHT22;44928;53.074;6.646;2023-07-13T03:49:43;15.80;99.90
59146;DHT22;44928;53.074;6.646;2023-07-13T03:52:11;15.80;99.90
59146;DHT22;44928;53.074;6.646;2023-07-13T03:54:37;15.80;99.90
59146;DHT22;44928;53.074;6.646;2023-07-13T03:57:03;15.70;99.90
59146;DHT22;44928;53.074;6.646;2023-07-13T03:59:28;15.80;99.90
59146;DHT22;44928;53.074;6.646;2023-07-13T04:01:54;15.70;99.90
59146;DHT22;44928;53.074;6.646;2023-07-13T04:04:20;15.80;99.90
59146;DHT22;44928;53.074;6.646;2023-07-13T04:06:46;15.70;99.90
59146;DHT22;44928;53.074;6.646;2023-07-13T04:09:12;15.70;99.90
59146;DHT22;44928;53.074;6.646;2023-07-13T04:11:38;15.80;99.90
59146;DHT22;44928;53.074;6.646;2023-07-13T04:14:04;15.70;99.90
59146;DHT22;44928;53.074;6.646;2023-07-13T04:16:30;15.80;99.90
59146;DHT22;44928;53.074;6.646;2023-07-13T04:18:56;15.70;99.90
59146;DHT22;44928;53.074;6.646;2023-07-13T04:21:27;15.70;99.90
59146;DHT22;44928;53.074;6.646;2023-07-13T04:23:53;15.70;99.90
59146;DHT22;44928;53.074;6.646;2023-07-13T04:26:19;15.70;99.90
59146;DHT22;44928;53.074;6.646;2023-07-13T04:28:49;15.70;99.90
59146;DHT22;44928;53.074;6.646;2023-07-13T04:31:15;15.70;99.90
59146;DHT22;44928;53.074;6.646;2023-07-13T04:33:41;15.70;99.90
59146;DHT22;44928;53.074;6.646;2023-07-13T04:36:09;15.70;99.90
59146;DHT22;44928;53.074;6.646;2023-07-13T04:38:36;15.70;99.90
59146;DHT22;44928;53.074;6.646;2023-07-13T04:41:04;15.70;99.90
59146;DHT22;44928;53.074;6.646;2023-07-13T04:43:31;15.70;99.90
59146;DHT22;44928;53.074;6.646;2023-07-13T04:46:03;15.70;99.90
59146;DHT22;44928;53.074;6.646;2023-07-13T04:48:29;15.80;99.90
59146;DHT22;44928;53.074;6.646;2023-07-13T04:50:57;15.80;99.90
59146;DHT22;44928;53.074;6.646;2023-07-13T04:53:24;15.90;99.90
59146;DHT22;44928;53.074;6.646;2023-07-13T04:55:50;15.90;99.90
59146;DHT22;44928;53.074;6.646;2023-07-13T04:58:16;15.80;99.90
59146;DHT22;44928;53.074;6.646;2023-07-13T05:00:42;15.90;99.90
59146;DHT22;44928;53.074;6.646;2023-07-13T05:03:09;15.90;99.90
59146;DHT22;44928;53.074;6.646;2023-07-13T05:05:35;15.90;99.90
59146;DHT22;44928;53.074;6.646;2023-07-13T05:08:01;15.90;99.90
59146;DHT22;44928;53.074;6.646;2023-07-13T05:10:27;15.90;99.90
59146;DHT22;44928;53.074;6.646;2023-07-13T05:12:53;15.90;99.90
59146;DHT22;44928;53.074;6.646;2023-07-13T05:15:21;15.90;99.90
59146;DHT22;44928;53.074;6.646;2023-07-13T05:17:49;15.90;99.90
59146;DHT22;44928;53.074;6.646;2023-07-13T05:20:15;15.90;99.90
59146;DHT22;44928;53.074;6.646;2023-07-13T05:22:42;15.90;99.90
59146;DHT22;44928;53.074;6.646;2023-07-13T05:25:08;16.00;99.90
59146;DHT22;44928;53.074;6.646;2023-07-13T05:27:35;16.00;99.90
59146;DHT22;44928;53.074;6.646;2023-07-13T05:30:03;16.00;99.90
59146;DHT22;44928;53.074;6.646;2023-07-13T05:32:29;16.10;99.90
59146;DHT22;44928;53.074;6.646;2023-07-13T05:34:55;16.10;99.90
59146;DHT22;44928;53.074;6.646;2023-07-13T05:37:21;16.20;99.90
59146;DHT22;44928;53.074;6.646;2023-07-13T05:39:47;16.20;99.90
59146;DHT22;44928;53.074;6.646;2023-07-13T05:42:13;16.20;99.90
59146;DHT22;44928;53.074;6.646;2023-07-13T05:44:42;16.30;99.90
59146;DHT22;44928;53.074;6.646;2023-07-13T05:47:08;16.30;99.90
59146;DHT22;44928;53.074;6.646;2023-07-13T05:49:34;16.30;99.90
59146;DHT22;44928;53.074;6.646;2023-07-13T05:52:00;16.40;99.90
59146;DHT22;44928;53.074;6.646;2023-07-13T05:54:26;16.50;99.90
59146;DHT22;44928;53.074;6.646;2023-07-13T05:56:52;16.50;99.90
59146;DHT22;44928;53.074;6.646;2023-07-13T05:59:18;16.60;99.90
59146;DHT22;44928;53.074;6.646;2023-07-13T06:01:44;16.60;99.90
59146;DHT22;44928;53.074;6.646;2023-07-13T06:04:10;16.70;99.90
59146;DHT22;44928;53.074;6.646;2023-07-13T06:06:36;16.70;99.90
59146;DHT22;44928;53.074;6.646;2023-07-13T06:09:02;16.80;99.90
59146;DHT22;44928;53.074;6.646;2023-07-13T06:11:28;16.80;99.90
59146;DHT22;44928;53.074;6.646;2023-07-13T06:13:55;16.90;99.90
59146;DHT22;44928;53.074;6.646;2023-07-13T06:16:22;16.90;99.90
59146;DHT22;44928;53.074;6.646;2023-07-13T06:18:48;17.00;99.90
59146;DHT22;44928;53.074;6.646;2023-07-13T06:21:23;17.10;99.90
59146;DHT22;44928;53.074;6.646;2023-07-13T06:23:50;17.10;99.90
59146;DHT22;44928;53.074;6.646;2023-07-13T06:26:18;17.10;99.90
59146;DHT22;44928;53.074;6.646;2023-07-13T06:28:44;17.20;99.90
59146;DHT22;44928;53.074;6.646;2023-07-13T06:31:12;17.20;99.90
59146;DHT22;44928;53.074;6.646;2023-07-13T06:33:38;17.20;99.90
59146;DHT22;44928;53.074;6.646;2023-07-13T06:36:05;17.30;99.90
59146;DHT22;44928;53.074;6.646;2023-07-13T06:38:32;17.30;99.90
59146;DHT22;44928;53.074;6.646;2023-07-13T06:40:58;17.40;99.90
59146;DHT22;44928;53.074;6.646;2023-07-13T06:43:23;17.40;99.90
59146;DHT22;44928;53.074;6.646;2023-07-13T06:45:51;17.50;99.90
59146;DHT22;44928;53.074;6.646;2023-07-13T06:48:18;17.50;99.90
59146;DHT22;44928;53.074;6.646;2023-07-13T06:50:45;17.60;99.90
59146;DHT22;44928;53.074;6.646;2023-07-13T06:53:12;17.60;99.90
59146;DHT22;44928;53.074;6.646;2023-07-13T06:55:38;17.70;99.90
59146;DHT22;44928;53.074;6.646;2023-07-13T06:58:04;17.80;99.90
59146;DHT22;44928;53.074;6.646;2023-07-13T07:00:31;17.80;99.90
59146;DHT22;44928;53.074;6.646;2023-07-13T07:02:57;17.90;99.90
59146;DHT22;44928;53.074;6.646;2023-07-13T07:05:23;18.00;99.90
59146;DHT22;44928;53.074;6.646;2023-07-13T07:07:53;18.00;99.90
59146;DHT22;44928;53.074;6.646;2023-07-13T07:10:19;18.20;99.90
59146;DHT22;44928;53.074;6.646;2023-07-13T07:12:46;18.20;99.90
59146;DHT22;44928;53.074;6.646;2023-07-13T07:15:12;18.20;99.90
59146;DHT22;44928;53.074;6.646;2023-07-13T07:17:38;18.40;99.90
59146;DHT22;44928;53.074;6.646;2023-07-13T07:20:05;18.40;99.90
59146;DHT22;44928;53.074;6.646;2023-07-13T07:22:32;18.40;99.90
59146;DHT22;44928;53.074;6.646;2023-07-13T07:24:58;18.40;99.90
59146;DHT22;44928;53.074;6.646;2023-07-13T07:27:24;18.40;99.90
59146;DHT22;44928;53.074;6.646;2023-07-13T07:29:50;18.40;99.90
59146;DHT22;44928;53.074;6.646;2023-07-13T07:32:16;18.40;99.90
59146;DHT22;44928;53.074;6.646;2023-07-13T07:34:42;18.40;99.90
59146;DHT22;44928;53.074;6.646;2023-07-13T07:37:12;18.40;99.90
59146;DHT22;44928;53.074;6.646;2023-07-13T07:39:39;18.40;99.90
59146;DHT22;44928;53.074;6.646;2023-07-13T07:42:05;18.50;99.90
59146;DHT22;44928;53.074;6.646;2023-07-13T07:44:32;18.50;99.90
59146;DHT22;44928;53.074;6.646;2023-07-13T07:46:58;18.40;99.90
59146;DHT22;44928;53.074;6.646;2023-07-13T07:49:24;18.50;99.90
59146;DHT22;44928;53.074;6.646;2023-07-13T07:51:50;18.50;99.90
59146;DHT22;44928;53.074;6.646;2023-07-13T07:54:17;18.60;99.90
59146;DHT22;44928;53.074;6.646;2023-07-13T07:56:43;18.60;99.90
59146;DHT22;44928;53.074;6.646;2023-07-13T07:59:09;18.70;99.90
59146;DHT22;44928;53.074;6.646;2023-07-13T08:01:35;18.80;99.90
59146;DHT22;44928;53.074;6.646;2023-07-13T08:04:01;18.80;99.90
59146;DHT22;44928;53.074;6.646;2023-07-13T08:06:27;18.80;99.90
59146;DHT22;44928;53.074;6.646;2023-07-13T08:08:53;18.80;99.90
59146;DHT22;44928;53.074;6.646;2023-07-13T08:11:20;18.80;99.90
59146;DHT22;44928;53.074;6.646;2023-07-13T08:13:46;18.70;99.90
59146;DHT22;44928;53.074;6.646;2023-07-13T08:16:11;18.70;99.90
59146;DHT22;44928;53.074;6.646;2023-07-13T08:18:37;18.70;99.90
59146;DHT22;44928;53.074;6.646;2023-07-13T08:21:07;18.70;99.90
59146;DHT22;44928;53.074;6.646;2023-07-13T08:23:34;18.80;99.90
59146;DHT22;44928;53.074;6.646;2023-07-13T08:26:01;18.90;99.90
59146;DHT22;44928;53.074;6.646;2023-07-13T08:28:27;19.00;99.90
59146;DHT22;44928;53.074;6.646;2023-07-13T08:30:53;19.10;99.90
59146;DHT22;44928;53.074;6.646;2023-07-13T08:33:21;19.10;99.90
59146;DHT22;44928;53.074;6.646;2023-07-13T08:35:48;19.10;99.90
59146;DHT22;44928;53.074;6.646;2023-07-13T08:38:14;19.00;99.90
59146;DHT22;44928;53.074;6.646;2023-07-13T08:40:41;19.00;99.90
59146;DHT22;44928;53.074;6.646;2023-07-13T08:43:15;18.90;99.90
59146;DHT22;44928;53.074;6.646;2023-07-13T08:45:50;18.80;99.90
59146;DHT22;44928;53.074;6.646;2023-07-13T08:48:26;18.80;99.90
59146;DHT22;44928;53.074;6.646;2023-07-13T08:51:20;18.70;99.90
59146;DHT22;44928;53.074;6.646;2023-07-13T08:54:03;18.70;99.90
59146;DHT22;44928;53.074;6.646;2023-07-13T08:56:31;18.50;99.90
59146;DHT22;44928;53.074;6.646;2023-07-13T08:59:09;18.50;99.90
59146;DHT22;44928;53.074;6.646;2023-07-13T09:04:21;18.30;99.90
59146;DHT22;44928;53.074;6.646;2023-07-13T09:15:21;18.10;99.90
59146;DHT22;44928;53.074;6.646;2023-07-13T09:17:50;18.10;99.90
59146;DHT22;44928;53.074;6.646;2023-07-13T09:22:49;18.20;99.90
59146;DHT22;44928;53.074;6.646;2023-07-13T09:27:48;18.20;99.90
59146;DHT22;44928;53.074;6.646;2023-07-13T09:32:43;18.50;99.90
59146;DHT22;44928;53.074;6.646;2023-07-13T09:35:18;18.60;99.90
59146;DHT22;44928;53.074;6.646;2023-07-13T09:37:45;18.80;99.90
59146;DHT22;44928;53.074;6.646;2023-07-13T09:40:23;19.00;99.90
59146;DHT22;44928;53.074;6.646;2023-07-13T09:42:53;19.30;99.90
59146;DHT22;44928;53.074;6.646;2023-07-13T09:45:28;19.60;99.90
59146;DHT22;44928;53.074;6.646;2023-07-13T09:48:06;19.90;99.90
59146;DHT22;44928;53.074;6.646;2023-07-13T09:50:34;20.10;99.90
59146;DHT22;44928;53.074;6.646;2023-07-13T09:53:01;20.20;99.90
59146;DHT22;44928;53.074;6.646;2023-07-13T09:55:40;20.20;99.90
59146;DHT22;44928;53.074;6.646;2023-07-13T10:00:36;20.00;99.90
59146;DHT22;44928;53.074;6.646;2023-07-13T10:05:42;19.50;99.90
59146;DHT22;44928;53.074;6.646;2023-07-13T10:08:24;19.20;99.90
59146;DHT22;44928;53.074;6.646;2023-07-13T10:10:58;19.00;99.90
59146;DHT22;44928;53.074;6.646;2023-07-13T10:13:37;18.80;99.90
59146;DHT22;44928;53.074;6.646;2023-07-13T10:16:04;18.80;99.90
59146;DHT22;44928;53.074;6.646;2023-07-13T10:18:48;18.70;99.90
59146;DHT22;44928;53.074;6.646;2023-07-13T10:21:17;18.70;99.90
59146;DHT22;44928;53.074;6.646;2023-07-13T10:23:49;18.50;99.90
59146;DHT22;44928;53.074;6.646;2023-07-13T10:26:21;18.50;99.90
59146;DHT22;44928;53.074;6.646;2023-07-13T10:28:56;18.40;99.90
59146;DHT22;44928;53.074;6.646;2023-07-13T10:31:23;18.40;99.90
59146;DHT22;44928;53.074;6.646;2023-07-13T10:33:49;18.30;99.90
59146;DHT22;44928;53.074;6.646;2023-07-13T10:38:48;18.40;99.90
59146;DHT22;44928;53.074;6.646;2023-07-13T10:41:20;18.50;99.90
59146;DHT22;44928;53.074;6.646;2023-07-13T10:43:54;18.70;99.90
59146;DHT22;44928;53.074;6.646;2023-07-13T10:46:23;18.70;99.90
59146;DHT22;44928;53.074;6.646;2023-07-13T10:49:04;18.60;99.90
59146;DHT22;44928;53.074;6.646;2023-07-13T10:51:31;18.50;99.90
59146;DHT22;44928;53.074;6.646;2023-07-13T10:54:11;18.50;99.90
59146;DHT22;44928;53.074;6.646;2023-07-13T10:56:39;18.50;99.90
59146;DHT22;44928;53.074;6.646;2023-07-13T10:59:32;18.60;99.90
59146;DHT22;44928;53.074;6.646;2023-07-13T11:02:10;18.80;99.90
59146;DHT22;44928;53.074;6.646;2023-07-13T11:04:44;19.10;99.90
59146;DHT22;44928;53.074;6.646;2023-07-13T11:07:21;19.40;99.90
59146;DHT22;44928;53.074;6.646;2023-07-13T11:10:03;19.60;99.90
59146;DHT22;44928;53.074;6.646;2023-07-13T11:15:13;20.30;99.90
59146;DHT22;44928;53.074;6.646;2023-07-13T11:17:51;20.50;99.90
59146;DHT22;44928;53.074;6.646;2023-07-13T11:20:33;20.80;99.90
59146;DHT22;44928;53.074;6.646;2023-07-13T11:25:38;21.30;99.90
59146;DHT22;44928;53.074;6.646;2023-07-13T11:30:43;21.60;99.90
59146;DHT22;44928;53.074;6.646;2023-07-13T11:36:14;22.10;99.90
59146;DHT22;44928;53.074;6.646;2023-07-13T11:38:58;22.30;99.90
59146;DHT22;44928;53.074;6.646;2023-07-13T11:41:29;22.40;99.90
59146;DHT22;44928;53.074;6.646;2023-07-13T11:44:10;22.60;99.90
59146;DHT22;44928;53.074;6.646;2023-07-13T11:46:37;22.70;99.90
59146;DHT22;44928;53.074;6.646;2023-07-13T11:49:05;22.50;99.90
59146;DHT22;44928;53.074;6.646;2023-07-13T11:51:35;22.30;99.90
59146;DHT22;44928;53.074;6.646;2023-07-13T11:54:41;22.10;99.90
59146;DHT22;44928;53.074;6.646;2023-07-13T11:57:30;21.90;99.90
59146;DHT22;44928;53.074;6.646;2023-07-13T11:59:58;22.10;99.90
59146;DHT22;44928;53.074;6.646;2023-07-13T12:02:34;22.20;99.90
59146;DHT22;44928;53.074;6.646;2023-07-13T12:05:04;22.10;99.90
59146;DHT22;44928;53.074;6.646;2023-07-13T12:07:32;21.90;99.90
59146;DHT22;44928;53.074;6.646;2023-07-13T12:10:47;21.70;99.90
59146;DHT22;44928;53.074;6.646;2023-07-13T12:15:17;21.60;99.90
59146;DHT22;44928;53.074;6.646;2023-07-13T12:17:43;21.60;99.90
59146;DHT22;44928;53.074;6.646;2023-07-13T12:20:26;21.50;99.90
59146;DHT22;44928;53.074;6.646;2023-07-13T12:22:52;21.50;99.90
59146;DHT22;44928;53.074;6.646;2023-07-13T12:25:19;21.70;99.90
59146;DHT22;44928;53.074;6.646;2023-07-13T12:27:50;21.80;99.90
59146;DHT22;44928;53.074;6.646;2023-07-13T12:30:29;21.90;99.80
59146;DHT22;44928;53.074;6.646;2023-07-13T12:33:06;21.90;99.10
59146;DHT22;44928;53.074;6.646;2023-07-13T12:35:47;21.80;98.40
59146;DHT22;44928;53.074;6.646;2023-07-13T12:38:15;21.80;98.40
59146;DHT22;44928;53.074;6.646;2023-07-13T12:40:41;21.80;99.00
59146;DHT22;44928;53.074;6.646;2023-07-13T12:43:14;21.70;98.60
59146;DHT22;44928;53.074;6.646;2023-07-13T12:45:59;21.80;98.20
59146;DHT22;44928;53.074;6.646;2023-07-13T12:48:25;21.90;97.90
59146;DHT22;44928;53.074;6.646;2023-07-13T12:50:53;22.00;98.80
59146;DHT22;44928;53.074;6.646;2023-07-13T12:53:23;22.00;99.60
59146;DHT22;44928;53.074;6.646;2023-07-13T12:55:52;22.00;99.20
59146;DHT22;44928;53.074;6.646;2023-07-13T13:00:55;21.50;98.70
59146;DHT22;44928;53.074;6.646;2023-07-13T13:03:29;21.50;99.40
59146;DHT22;44928;53.074;6.646;2023-07-13T13:06:06;21.50;98.70
59146;DHT22;44928;53.074;6.646;2023-07-13T13:08:34;21.60;99.20
59146;DHT22;44928;53.074;6.646;2023-07-13T13:11:01;21.70;99.40
59146;DHT22;44928;53.074;6.646;2023-07-13T13:13:27;21.70;98.20
59146;DHT22;44928;53.074;6.646;2023-07-13T13:15:54;21.70;98.10
59146;DHT22;44928;53.074;6.646;2023-07-13T13:18:22;21.70;98.10
59146;DHT22;44928;53.074;6.646;2023-07-13T13:20:50;21.60;97.30
59146;DHT22;44928;53.074;6.646;2023-07-13T13:23:19;21.50;98.20
59146;DHT22;44928;53.074;6.646;2023-07-13T13:25:46;21.50;98.50
59146;DHT22;44928;53.074;6.646;2023-07-13T13:28:15;21.70;98.20
59146;DHT22;44928;53.074;6.646;2023-07-13T13:30:42;21.80;98.40
59146;DHT22;44928;53.074;6.646;2023-07-13T13:33:14;21.90;98.90
59146;DHT22;44928;53.074;6.646;2023-07-13T13:35:41;22.00;96.80
59146;DHT22;44928;53.074;6.646;2023-07-13T13:38:27;21.90;96.30
59146;DHT22;44928;53.074;6.646;2023-07-13T13:40:53;21.90;96.10
59146;DHT22;44928;53.074;6.646;2023-07-13T13:43:25;21.70;97.10
59146;DHT22;44928;53.074;6.646;2023-07-13T13:45:59;21.80;97.70
59146;DHT22;44928;53.074;6.646;2023-07-13T13:48:32;21.90;97.60
59146;DHT22;44928;53.074;6.646;2023-07-13T13:50:59;21.90;97.10
59146;DHT22;44928;53.074;6.646;2023-07-13T13:53:26;22.00;97.40
59146;DHT22;44928;53.074;6.646;2023-07-13T13:55:53;22.00;97.50
59146;DHT22;44928;53.074;6.646;2023-07-13T13:58:20;21.90;97.30
59146;DHT22;44928;53.074;6.646;2023-07-13T14:00:47;21.80;97.80
59146;DHT22;44928;53.074;6.646;2023-07-13T14:03:20;21.70;98.60
59146;DHT22;44928;53.074;6.646;2023-07-13T14:05:47;21.80;98.40
59146;DHT22;44928;53.074;6.646;2023-07-13T14:08:16;21.70;98.40
59146;DHT22;44928;53.074;6.646;2023-07-13T14:10:43;21.80;97.10
59146;DHT22;44928;53.074;6.646;2023-07-13T14:13:26;21.80;96.60
59146;DHT22;44928;53.074;6.646;2023-07-13T14:15:53;21.70;97.50
59146;DHT22;44928;53.074;6.646;2023-07-13T14:18:20;21.60;97.10
59146;DHT22;44928;53.074;6.646;2023-07-13T14:20:47;21.60;97.30
59146;DHT22;44928;53.074;6.646;2023-07-13T14:23:14;21.60;96.80
59146;DHT22;44928;53.074;6.646;2023-07-13T14:25:41;21.60;97.00
59146;DHT22;44928;53.074;6.646;2023-07-13T14:28:17;21.60;97.10
59146;DHT22;44928;53.074;6.646;2023-07-13T14:30:44;21.70;96.30
59146;DHT22;44928;53.074;6.646;2023-07-13T14:33:11;21.80;96.10
59146;DHT22;44928;53.074;6.646;2023-07-13T14:35:37;21.90;96.00
59146;DHT22;44928;53.074;6.646;2023-07-13T14:38:03;21.90;96.00
59146;DHT22;44928;53.074;6.646;2023-07-13T14:40:31;21.90;95.70
59146;DHT22;44928;53.074;6.646;2023-07-13T14:42:58;21.90;96.20
59146;DHT22;44928;53.074;6.646;2023-07-13T14:45:24;21.90;96.50
59146;DHT22;44928;53.074;6.646;2023-07-13T14:47:51;21.90;97.00
59146;DHT22;44928;53.074;6.646;2023-07-13T14:50:29;21.90;96.90
59146;DHT22;44928;53.074;6.646;2023-07-13T14:52:56;22.00;97.20
59146;DHT22;44928;53.074;6.646;2023-07-13T14:55:22;21.90;96.80
59146;DHT22;44928;53.074;6.646;2023-07-13T14:57:49;21.90;96.30
59146;DHT22;44928;53.074;6.646;2023-07-13T15:00:20;21.90;96.30
59146;DHT22;44928;53.074;6.646;2023-07-13T15:02:55;21.90;96.80
59146;DHT22;44928;53.074;6.646;2023-07-13T15:05:25;21.90;96.60
59146;DHT22;44928;53.074;6.646;2023-07-13T15:07:52;21.80;96.90
59146;DHT22;44928;53.074;6.646;2023-07-13T15:10:24;21.80;97.80
59146;DHT22;44928;53.074;6.646;2023-07-13T15:12:59;21.90;98.20
59146;DHT22;44928;53.074;6.646;2023-07-13T15:15:30;22.00;96.60
59146;DHT22;44928;53.074;6.646;2023-07-13T15:17:58;21.80;97.00
59146;DHT22;44928;53.074;6.646;2023-07-13T15:20:33;21.80;97.50
59146;DHT22;44928;53.074;6.646;2023-07-13T15:23:01;21.80;97.30
59146;DHT22;44928;53.074;6.646;2023-07-13T15:25:29;21.80;97.30
59146;DHT22;44928;53.074;6.646;2023-07-13T15:27:57;21.70;97.30
59146;DHT22;44928;53.074;6.646;2023-07-13T15:30:27;21.70;96.30
59146;DHT22;44928;53.074;6.646;2023-07-13T15:32:53;21.60;97.20
59146;DHT22;44928;53.074;6.646;2023-07-13T15:35:22;21.60;96.30
59146;DHT22;44928;53.074;6.646;2023-07-13T15:37:49;21.50;97.20
59146;DHT22;44928;53.074;6.646;2023-07-13T15:40:16;21.50;97.60
59146;DHT22;44928;53.074;6.646;2023-07-13T15:42:43;21.50;97.80
59146;DHT22;44928;53.074;6.646;2023-07-13T15:45:22;21.40;97.80
59146;DHT22;44928;53.074;6.646;2023-07-13T15:47:49;21.30;97.00
59146;DHT22;44928;53.074;6.646;2023-07-13T15:50:23;21.20;97.50
59146;DHT22;44928;53.074;6.646;2023-07-13T15:52:54;21.20;98.30
59146;DHT22;44928;53.074;6.646;2023-07-13T15:55:21;21.20;98.00
59146;DHT22;44928;53.074;6.646;2023-07-13T15:57:49;21.20;98.20
59146;DHT22;44928;53.074;6.646;2023-07-13T16:00:24;21.20;98.20
59146;DHT22;44928;53.074;6.646;2023-07-13T16:02:51;21.20;98.90
59146;DHT22;44928;53.074;6.646;2023-07-13T16:05:18;21.30;98.30
59146;DHT22;44928;53.074;6.646;2023-07-13T16:07:46;21.20;98.20
59146;DHT22;44928;53.074;6.646;2023-07-13T16:10:42;21.20;97.60
59146;DHT22;44928;53.074;6.646;2023-07-13T16:13:15;21.20;98.20
59146;DHT22;44928;53.074;6.646;2023-07-13T16:15:41;21.20;98.70
59146;DHT22;44928;53.074;6.646;2023-07-13T16:18:11;21.20;98.70
59146;DHT22;44928;53.074;6.646;2023-07-13T16:20:45;21.20;98.40
59146;DHT22;44928;53.074;6.646;2023-07-13T16:23:13;21.10;98.80
59146;DHT22;44928;53.074;6.646;2023-07-13T16:25:39;21.10;99.00